Hubbard, Nebraska
Current Conditions -  °F | °C
As of 3:52 PM on Monday 24 Nov 2014 (Local Time) from KSUX Reporting Station
Clear Clear  
Wind Chill: 20°   Ceiling: Unl
Heat Index: 32°   Visibility: 10mi
Dew Point: 15°   Wind: 21mph
Humidity: 50%   Direction: 320°NW
Pressure: 29.81"   Gusts: 38mph
Location:  42.39°N, 96.59°W
Report Text: KSUX 242152Z 32018G33KT 10SM CLR 00/M09 A2981 RMK AO2 PK WND 32037/2109 SNE20 SLP110 P0000 T00001094
Loading
Personal Weather Stations






























Interactive Weather Map New forecast layout! Learn more

10-Day Weather Forecast

Advertisements
Track Severe Weather on mobile